createdAt,value
2019-04-20T00:01:30.288Z,3.20
2019-04-20T00:03:57.172Z,5.50
2019-04-20T00:06:31.659Z,4.37
2019-04-20T00:09:07.389Z,5.23
2019-04-20T00:11:47.593Z,5.60
2019-04-20T00:14:13.740Z,3.87
2019-04-20T00:16:38.076Z,4.25
2019-04-20T00:19:10.523Z,4.10
2019-04-20T00:21:47.269Z,4.15
2019-04-20T00:24:24.731Z,3.62
2019-04-20T00:27:20.733Z,4.47
2019-04-20T00:29:35.456Z,6.23
2019-04-20T00:32:00.553Z,4.60
2019-04-20T00:34:26.455Z,4.77
2019-04-20T00:36:54.096Z,4.50
2019-04-20T00:39:23.929Z,5.10
2019-04-20T00:42:01.077Z,5.03
2019-04-20T00:44:31.965Z,6.05
2019-04-20T00:47:13.213Z,4.07
2019-04-20T00:49:48.621Z,6.23
2019-04-20T00:52:27.523Z,4.22
2019-04-20T00:54:36.903Z,4.70
2019-04-20T00:57:21.747Z,4.07
2019-04-20T01:00:03.617Z,4.37
2019-04-20T01:02:20.852Z,3.67
2019-04-20T01:04:58.383Z,3.47
2019-04-20T01:07:36.041Z,3.90
2019-04-20T01:10:08.973Z,4.87
2019-04-20T01:12:40.630Z,4.10
2019-04-20T01:15:25.624Z,3.80
2019-04-20T01:17:44.929Z,4.80
2019-04-20T01:20:15.631Z,3.83
2019-04-20T01:22:53.740Z,4.45
2019-04-20T01:25:25.570Z,4.63
2019-04-20T01:28:09.089Z,7.00
2019-04-20T01:30:32.021Z,3.50
2019-04-20T01:33:09.011Z,3.57
2019-04-20T01:35:43.909Z,3.93
2019-04-20T01:38:16.897Z,3.50
2019-04-20T01:40:31.634Z,4.87
2019-04-20T01:43:01.603Z,4.27
2019-04-20T01:45:35.698Z,3.70
2019-04-20T01:48:03.434Z,5.03
2019-04-20T01:50:37.155Z,5.45
2019-04-20T01:53:21.241Z,4.73
2019-04-20T01:56:01.343Z,4.57
2019-04-20T01:58:54.966Z,3.87
2019-04-20T02:04:03.322Z,3.90
2019-04-20T02:06:42.367Z,4.23
2019-04-20T02:09:16.693Z,4.08
2019-04-20T02:11:50.380Z,6.47
2019-04-20T02:14:30.760Z,7.30
2019-04-20T02:17:06.562Z,3.87
2019-04-20T02:19:44.191Z,4.90
2019-04-20T02:22:13.680Z,4.17
2019-04-20T02:24:34.009Z,3.92
2019-04-20T02:27:06.189Z,4.70
2019-04-20T02:30:07.074Z,4.66
2019-04-20T02:32:47.151Z,5.77
2019-04-20T02:35:16.801Z,4.07
2019-04-20T02:38:03.134Z,4.83
2019-04-20T02:40:35.214Z,4.10
2019-04-20T02:42:59.224Z,4.30
2019-04-20T02:45:38.815Z,4.00
2019-04-20T02:50:38.002Z,4.07
2019-04-20T02:53:05.495Z,5.03
2019-04-20T02:55:44.838Z,4.43
2019-04-20T03:00:35.237Z,4.22
2019-04-20T03:03:06.206Z,4.03
2019-04-20T03:05:41.165Z,5.13
2019-04-20T03:08:20.589Z,6.03
2019-04-20T03:11:01.323Z,3.73
2019-04-20T03:13:32.332Z,4.75
2019-04-20T03:16:08.681Z,4.23
2019-04-20T03:18:37.322Z,4.73
2019-04-20T03:21:08.417Z,5.67
2019-04-20T03:23:45.623Z,6.13
2019-04-20T03:26:21.347Z,4.17
2019-04-20T03:28:58.898Z,4.47
2019-04-20T03:31:56.451Z,6.07
2019-04-20T03:34:50.484Z,4.83
2019-04-20T03:36:50.030Z,4.45
2019-04-20T03:39:09.793Z,5.57
2019-04-20T03:41:31.009Z,5.00
2019-04-20T03:44:00.903Z,4.97
2019-04-20T03:46:36.617Z,5.20
2019-04-20T03:49:15.756Z,4.27
2019-04-20T03:51:53.487Z,4.70
2019-04-20T03:54:32.096Z,5.90
2019-04-20T04:00:04.683Z,3.77
2019-04-20T04:03:00.422Z,6.60
2019-04-20T04:05:13.521Z,5.30
2019-04-20T04:07:38.091Z,4.77
2019-04-20T04:10:17.284Z,5.22
2019-04-20T04:13:14.705Z,7.70
2019-04-20T04:15:52.284Z,5.47
2019-04-20T04:18:26.125Z,5.80
2019-04-20T04:20:59.057Z,5.63
2019-04-20T04:23:40.797Z,5.03
2019-04-20T04:26:09.730Z,5.40
2019-04-20T04:28:40.882Z,7.13
2019-04-20T04:31:12.060Z,7.57
2019-04-20T04:36:15.517Z,6.93
2019-04-20T04:38:53.485Z,6.13
2019-04-20T04:41:23.974Z,4.80
2019-04-20T04:43:49.829Z,10.10
2019-04-20T04:46:04.016Z,5.63
2019-04-20T04:48:37.254Z,7.03
2019-04-20T04:51:29.435Z,5.70
2019-04-20T04:54:05.837Z,4.60
2019-04-20T04:56:27.471Z,6.20
2019-04-20T04:58:58.192Z,5.47
2019-04-20T05:01:31.837Z,10.70
2019-04-20T05:04:21.605Z,5.63
2019-04-20T05:06:45.816Z,7.90
2019-04-20T05:09:06.027Z,6.10
2019-04-20T05:11:34.976Z,5.07
2019-04-20T05:14:10.238Z,8.83
2019-04-20T05:16:49.924Z,6.90
2019-04-20T05:19:29.566Z,6.28
2019-04-20T05:22:04.084Z,6.17
2019-04-20T05:24:30.491Z,6.10
2019-04-20T05:27:07.190Z,5.47
2019-04-20T05:29:24.918Z,5.60
2019-04-20T05:31:57.172Z,5.87
2019-04-20T05:34:45.337Z,4.53
2019-04-20T05:37:24.034Z,5.87
2019-04-20T05:39:48.589Z,6.87
2019-04-20T05:42:18.905Z,7.97
2019-04-20T05:44:49.839Z,5.20
2019-04-20T05:47:19.538Z,6.63
2019-04-20T05:49:49.958Z,4.70
2019-04-20T05:52:43.866Z,4.75
2019-04-20T05:54:58.407Z,5.53
2019-04-20T06:00:03.596Z,6.03
2019-04-20T06:02:29.096Z,7.20
2019-04-20T06:07:31.088Z,6.17
2019-04-20T06:10:07.825Z,6.73
2019-04-20T06:12:37.340Z,5.03
2019-04-20T06:15:15.630Z,7.00
2019-04-20T06:18:01.062Z,4.63
2019-04-20T06:20:37.943Z,5.05
2019-04-20T06:23:28.925Z,5.03
2019-04-20T06:26:17.188Z,5.23
2019-04-20T06:28:26.826Z,5.70
2019-04-20T06:30:52.800Z,5.03
2019-04-20T06:34:27.596Z,6.08
2019-04-20T06:39:21.331Z,5.70
2019-04-20T06:42:08.429Z,8.30
2019-04-20T06:44:30.356Z,4.77
2019-04-20T06:47:03.094Z,5.23
2019-04-20T06:49:32.053Z,6.60
2019-04-20T06:52:23.468Z,7.37
2019-04-20T06:58:49.845Z,19.47
2019-04-20T07:22:19.755Z,7.07
2019-04-20T07:24:40.297Z,8.30
2019-04-20T07:27:06.467Z,7.97
2019-04-20T07:29:41.164Z,6.77
2019-04-20T07:32:01.452Z,6.28
2019-04-20T07:34:40.160Z,5.78
2019-04-20T07:39:48.260Z,5.83
2019-04-20T07:42:23.041Z,6.80
2019-04-20T07:44:55.469Z,6.30
2019-04-20T07:47:33.080Z,6.10
2019-04-20T07:49:52.021Z,6.00
2019-04-20T07:52:06.190Z,6.00
2019-04-20T07:55:22.555Z,5.97
2019-04-20T07:57:27.198Z,6.97
2019-04-20T07:59:59.037Z,6.10
2019-04-20T08:02:51.735Z,6.25
2019-04-20T08:05:18.210Z,5.73
2019-04-20T08:07:43.335Z,6.23
2019-04-20T08:10:12.222Z,6.17
2019-04-20T08:13:03.379Z,6.17
2019-04-20T08:16:33.118Z,21.10
2019-04-20T08:18:02.750Z,5.60
2019-04-20T08:20:37.063Z,7.77
2019-04-20T08:23:05.064Z,6.22
2019-04-20T08:25:28.061Z,5.40
2019-04-20T08:27:54.961Z,8.30
2019-04-20T08:31:02.439Z,7.30
2019-04-20T08:33:34.984Z,9.23
2019-04-20T08:36:11.872Z,7.22
2019-04-20T08:41:09.681Z,7.83
2019-04-20T08:43:47.172Z,13.43
2019-04-20T08:46:17.722Z,8.60
2019-04-20T08:48:46.734Z,9.37
2019-04-20T08:51:14.581Z,7.27
2019-04-20T08:53:47.080Z,7.23
2019-04-20T08:56:27.159Z,12.73
2019-04-20T08:58:43.425Z,7.47
2019-04-20T09:01:18.412Z,10.77
2019-04-20T09:03:56.479Z,15.83
2019-04-20T09:06:33.699Z,8.70
2019-04-20T09:08:57.751Z,8.67
2019-04-20T09:11:41.513Z,9.85
2019-04-20T09:31:39.513Z,18.07
2019-04-20T09:34:14.446Z,14.23
2019-04-20T09:36:44.602Z,14.37
2019-04-20T09:39:14.981Z,13.83
2019-04-20T09:41:59.139Z,23.73
2019-04-20T09:44:08.927Z,12.53
2019-04-20T09:46:45.270Z,10.45
2019-04-20T09:49:20.124Z,20.32
2019-04-20T09:51:57.480Z,13.20
2019-04-20T09:54:32.573Z,13.32
2019-04-20T09:57:04.365Z,12.90
2019-04-20T09:59:33.548Z,11.00
2019-04-20T10:01:59.129Z,8.90
2019-04-20T10:04:19.588Z,9.47
2019-04-20T10:06:49.682Z,14.90
2019-04-20T10:09:26.363Z,15.67
2019-04-20T10:11:50.660Z,15.07
2019-04-20T10:14:20.191Z,11.67
2019-04-20T10:16:49.768Z,12.20
2019-04-20T10:19:27.805Z,22.03
2019-04-20T10:21:50.802Z,15.27
2019-04-20T10:24:20.876Z,13.10
2019-04-20T10:26:50.597Z,10.63
2019-04-20T10:29:20.086Z,15.73
2019-04-20T10:31:56.665Z,10.63
2019-04-20T10:34:23.933Z,10.13
2019-04-20T10:36:53.643Z,12.93
2019-04-20T10:39:24.907Z,11.40
2019-04-20T10:41:58.977Z,11.67
2019-04-20T10:44:27.159Z,9.43
2019-04-20T10:46:58.671Z,8.93
2019-04-20T10:49:29.139Z,6.87
2019-04-20T10:51:59.989Z,10.10
2019-04-20T10:54:30.295Z,9.98
2019-04-20T10:57:06.078Z,7.30
2019-04-20T10:59:35.622Z,6.40
2019-04-20T11:02:05.721Z,7.33
2019-04-20T11:04:35.253Z,6.28
2019-04-20T11:07:05.603Z,13.18
2019-04-20T11:09:40.707Z,8.07
2019-04-20T11:12:10.698Z,12.83
2019-04-20T11:14:43.459Z,10.20
2019-04-20T11:17:12.268Z,9.33
2019-04-20T11:19:43.357Z,8.63
2019-04-20T11:22:14.497Z,8.53
2019-04-20T11:24:44.144Z,8.03
2019-04-20T11:27:14.267Z,9.68
2019-04-20T11:29:44.417Z,8.60
2019-04-20T11:32:14.635Z,9.03
2019-04-20T11:34:45.422Z,11.60
2019-04-20T11:37:15.341Z,7.30
2019-04-20T11:39:45.645Z,13.10
2019-04-20T11:42:15.759Z,6.43
2019-04-20T11:44:46.722Z,11.95
2019-04-20T11:47:16.761Z,8.35
2019-04-20T11:49:46.383Z,9.17
2019-04-20T11:52:19.714Z,5.87
2019-04-20T11:54:48.502Z,9.28
2019-04-20T11:57:19.576Z,10.47
2019-04-20T11:59:49.211Z,12.87
2019-04-20T12:02:40.906Z,10.67
2019-04-20T12:05:23.941Z,6.78
2019-04-20T12:08:03.040Z,5.28
2019-04-20T12:10:35.026Z,5.00
2019-04-20T12:13:24.799Z,9.23
2019-04-20T12:15:55.659Z,4.87
2019-04-20T12:18:25.487Z,6.60
2019-04-20T12:21:14.803Z,5.77
2019-04-20T12:23:44.615Z,7.05
2019-04-20T12:26:16.090Z,5.80
2019-04-20T12:28:45.576Z,5.03
2019-04-20T12:31:20.293Z,4.58
2019-04-20T12:33:46.518Z,7.30
2019-04-20T12:36:16.475Z,10.75
2019-04-20T12:38:46.421Z,5.53
2019-04-20T12:41:16.187Z,10.35
2019-04-20T12:43:56.029Z,5.70
2019-04-20T12:46:26.777Z,5.40
2019-04-20T12:48:57.795Z,5.83
2019-04-20T12:51:33.912Z,5.30
2019-04-20T12:54:10.787Z,6.40
2019-04-20T12:56:40.528Z,6.33
2019-04-20T12:59:11.530Z,6.27
2019-04-20T13:01:41.637Z,6.90
2019-04-20T13:04:12.101Z,8.73
2019-04-20T13:06:42.796Z,7.80
2019-04-20T13:09:14.470Z,5.83
2019-04-20T13:12:01.118Z,5.93
2019-04-20T13:15:04.682Z,6.85
2019-04-20T13:17:38.004Z,8.47
2019-04-20T13:23:26.850Z,6.10
2019-04-20T13:25:57.126Z,5.10
2019-04-20T13:28:26.977Z,9.33
2019-04-20T13:30:57.764Z,6.50
2019-04-20T13:33:27.366Z,5.37
2019-04-20T13:35:56.785Z,5.73
2019-04-20T13:38:26.304Z,5.45
2019-04-20T13:40:55.841Z,7.42
2019-04-20T13:43:25.867Z,8.60
2019-04-20T13:45:55.334Z,9.53
2019-04-20T13:48:24.871Z,6.67
2019-04-20T13:50:54.344Z,8.00
2019-04-20T13:53:23.711Z,9.27
2019-04-20T13:55:54.050Z,5.60
2019-04-20T13:58:41.039Z,6.83
2019-04-20T14:01:12.605Z,6.43
2019-04-20T14:03:42.907Z,6.13
2019-04-20T14:06:33.117Z,5.47
2019-04-20T14:09:05.559Z,7.87
2019-04-20T14:11:35.718Z,5.55
2019-04-20T14:14:08.119Z,6.10
2019-04-20T14:16:37.237Z,6.43
2019-04-20T14:19:07.239Z,6.33
2019-04-20T14:21:36.706Z,7.43
2019-04-20T14:24:06.796Z,8.53
2019-04-20T14:26:40.363Z,6.23
2019-04-20T14:29:07.469Z,7.30
2019-04-20T14:31:37.513Z,6.77
2019-04-20T14:34:07.111Z,6.50
2019-04-20T14:36:37.100Z,7.23
2019-04-20T14:39:10.111Z,6.43
2019-04-20T14:41:40.372Z,7.37
2019-04-20T14:44:10.072Z,8.63
2019-04-20T14:46:40.055Z,8.07
2019-04-20T14:49:10.439Z,7.10
2019-04-20T14:51:40.039Z,6.90
2019-04-20T14:54:09.844Z,6.83
2019-04-20T14:56:43.458Z,6.50
2019-04-20T14:59:15.695Z,6.57
2019-04-20T15:01:50.398Z,6.37
2019-04-20T15:04:23.200Z,6.53
2019-04-20T15:06:52.675Z,6.92
2019-04-20T15:09:22.119Z,6.33
2019-04-20T15:11:52.707Z,7.85
2019-04-20T15:14:22.814Z,7.42
2019-04-20T15:16:52.869Z,7.20
2019-04-20T15:19:25.304Z,7.75
2019-04-20T15:21:59.882Z,6.60
2019-04-20T15:24:29.444Z,7.30
2019-04-20T15:27:00.256Z,5.63
2019-04-20T15:29:30.521Z,6.23
2019-04-20T15:32:00.107Z,6.33
2019-04-20T15:34:30.835Z,7.70
2019-04-20T15:37:00.333Z,6.33
2019-04-20T15:39:30.541Z,9.03
2019-04-20T15:42:01.249Z,8.07
2019-04-20T15:44:31.446Z,8.00
2019-04-20T15:47:01.449Z,10.23
2019-04-20T15:49:31.506Z,6.47
2019-04-20T15:52:01.787Z,6.43
2019-04-20T15:54:31.659Z,6.10
2019-04-20T15:57:07.450Z,7.33
2019-04-20T15:59:32.721Z,6.50
2019-04-20T16:02:21.056Z,5.33
2019-04-20T16:04:58.434Z,6.17
2019-04-20T16:07:32.901Z,6.87
2019-04-20T16:09:59.142Z,6.17
2019-04-20T16:12:29.137Z,6.55
2019-04-20T16:14:59.667Z,8.53
2019-04-20T16:17:36.844Z,6.22
2019-04-20T16:20:08.339Z,5.83
2019-04-20T16:22:32.480Z,10.60
2019-04-20T16:25:15.472Z,5.27
2019-04-20T16:27:45.636Z,6.57
2019-04-20T16:30:15.818Z,6.70
2019-04-20T16:32:45.171Z,8.70
2019-04-20T16:35:16.220Z,5.60
2019-04-20T16:37:46.473Z,5.90
2019-04-20T16:40:17.602Z,7.35
2019-04-20T16:42:48.007Z,6.70
2019-04-20T16:45:19.051Z,8.17
2019-04-20T16:47:48.627Z,6.70
2019-04-20T16:50:19.311Z,8.63
2019-04-20T16:52:48.928Z,5.83
2019-04-20T16:55:18.872Z,7.58
2019-04-20T16:57:51.208Z,8.30
2019-04-20T17:00:23.261Z,6.63
2019-04-20T17:05:15.196Z,6.90
2019-04-20T17:07:47.027Z,7.83
2019-04-20T17:10:18.190Z,11.43
2019-04-20T17:12:48.072Z,6.10
2019-04-20T17:15:19.530Z,7.08
2019-04-20T17:17:50.250Z,5.62
2019-04-20T17:20:21.998Z,6.03
2019-04-20T17:22:52.390Z,6.85
2019-04-20T17:25:22.012Z,6.70
2019-04-20T17:27:59.613Z,12.03
2019-04-20T17:30:31.553Z,8.73
2019-04-20T17:35:52.804Z,14.60
2019-04-20T17:38:11.671Z,8.40
2019-04-20T17:41:00.034Z,12.00
2019-04-20T17:43:23.272Z,6.70
2019-04-20T17:45:54.329Z,8.00
2019-04-20T17:48:28.281Z,8.40
2019-04-20T17:51:15.392Z,9.17
2019-04-20T17:53:44.641Z,6.73
2019-04-20T17:56:10.317Z,7.13
2019-04-20T17:58:41.359Z,9.37
2019-04-20T18:01:24.325Z,6.97
2019-04-20T18:04:24.442Z,6.40
2019-04-20T18:06:41.641Z,8.30
2019-04-20T18:09:05.341Z,8.20
2019-04-20T18:11:27.017Z,7.25
2019-04-20T18:14:04.474Z,7.50
2019-04-20T18:16:52.458Z,8.13
2019-04-20T18:19:22.903Z,7.97
2019-04-20T18:21:51.819Z,13.48
2019-04-20T18:24:46.388Z,7.60
2019-04-20T18:27:14.210Z,6.83
2019-04-20T18:29:45.479Z,7.00
2019-04-20T18:31:59.547Z,8.68
2019-04-20T18:34:31.915Z,7.10
2019-04-20T18:37:07.732Z,8.13
2019-04-20T18:39:37.430Z,8.50
2019-04-20T18:42:12.983Z,7.30
2019-04-20T18:44:57.150Z,8.00
2019-04-20T18:47:31.871Z,7.20
2019-04-20T18:49:48.842Z,7.20
2019-04-20T18:52:11.485Z,10.30
2019-04-20T18:54:44.908Z,12.67
2019-04-20T18:57:18.048Z,6.70
2019-04-20T18:59:50.482Z,10.45
2019-04-20T19:02:22.685Z,6.80
2019-04-20T19:04:48.086Z,9.23
2019-04-20T19:07:17.661Z,10.37
2019-04-20T19:09:53.278Z,7.97
2019-04-20T19:12:31.208Z,8.03
2019-04-20T19:15:28.016Z,8.73
2019-04-20T19:17:53.791Z,9.90
2019-04-20T19:20:23.316Z,8.03
2019-04-20T19:22:53.243Z,8.77
2019-04-20T19:25:27.351Z,13.13
2019-04-20T19:27:56.579Z,7.40
2019-04-20T19:30:35.387Z,9.35
2019-04-20T19:33:16.265Z,9.05
2019-04-20T19:35:41.654Z,10.40
2019-04-20T19:38:09.598Z,7.97
2019-04-20T19:40:45.742Z,9.83
2019-04-20T19:43:15.569Z,8.95
2019-04-20T19:46:05.606Z,9.00
2019-04-20T19:48:22.101Z,16.83
2019-04-20T19:50:58.894Z,15.33
2019-04-20T19:53:33.544Z,12.53
2019-04-20T19:55:52.979Z,9.93
2019-04-20T19:58:26.417Z,10.10
2019-04-20T20:00:53.419Z,12.53
2019-04-20T20:03:21.971Z,13.53
2019-04-20T20:05:54.830Z,7.50
2019-04-20T20:08:26.830Z,11.63
2019-04-20T20:10:57.807Z,8.60
2019-04-20T20:13:36.143Z,8.35
2019-04-20T20:16:08.931Z,8.03
2019-04-20T20:18:45.262Z,11.00
2019-04-20T20:21:19.084Z,7.65
2019-04-20T20:23:32.149Z,9.55
2019-04-20T20:26:05.065Z,9.68
2019-04-20T20:28:43.556Z,12.00
2019-04-20T20:31:17.060Z,10.97
2019-04-20T20:33:51.070Z,9.73
2019-04-20T20:36:12.691Z,12.80
2019-04-20T20:38:44.855Z,11.97
2019-04-20T20:41:17.927Z,12.63
2019-04-20T20:43:52.302Z,13.90
2019-04-20T20:46:24.575Z,9.97
2019-04-20T20:49:04.936Z,11.87
2019-04-20T20:51:39.427Z,51.83
2019-04-20T20:53:56.467Z,25.27
2019-04-20T20:56:24.359Z,12.67
2019-04-20T20:58:59.518Z,11.80
2019-04-20T21:01:25.357Z,12.03
2019-04-20T21:03:53.019Z,13.93
2019-04-20T21:06:22.510Z,13.47
2019-04-20T21:08:54.889Z,13.73
2019-04-20T21:11:27.266Z,14.75
2019-04-20T21:13:55.748Z,14.28
2019-04-20T21:16:41.083Z,16.00
2019-04-20T21:19:21.401Z,12.10
2019-04-20T21:21:49.567Z,15.23
2019-04-20T21:24:15.976Z,16.10
2019-04-20T21:26:44.312Z,13.10
2019-04-20T21:29:14.002Z,11.63
2019-04-20T21:31:54.450Z,13.93
2019-04-20T21:34:18.608Z,13.37
2019-04-20T21:36:47.172Z,21.83
2019-04-20T21:39:32.409Z,16.87
2019-04-20T21:41:56.892Z,14.43
2019-04-20T21:44:25.260Z,23.50
2019-04-20T21:46:54.587Z,13.90
2019-04-20T21:49:37.602Z,15.35
2019-04-20T21:52:00.882Z,15.40
2019-04-20T21:54:25.449Z,14.15
2019-04-20T21:57:01.630Z,16.80
2019-04-20T21:59:32.046Z,15.23
2019-04-20T22:02:05.333Z,15.10
2019-04-20T22:04:29.170Z,13.70
2019-04-20T22:06:58.756Z,15.33
2019-04-20T22:09:34.524Z,14.30
2019-04-20T22:12:00.155Z,14.78
2019-04-20T22:14:33.623Z,18.67
2019-04-20T22:17:03.627Z,14.63
2019-04-20T22:19:41.964Z,15.13
2019-04-20T22:22:15.148Z,17.63
2019-04-20T22:24:53.943Z,15.32
2019-04-20T22:27:30.065Z,14.70
2019-04-20T22:29:57.568Z,10.97
2019-04-20T22:32:28.121Z,13.50
2019-04-20T22:35:04.107Z,13.58
2019-04-20T22:37:32.075Z,13.35
2019-04-20T22:40:03.059Z,15.10
2019-04-20T22:42:40.122Z,16.73
2019-04-20T22:45:09.840Z,14.00
2019-04-20T22:47:39.030Z,14.67
2019-04-20T22:50:25.477Z,12.57
2019-04-20T22:52:48.653Z,13.63
2019-04-20T22:55:38.940Z,15.47
2019-04-20T22:57:55.107Z,14.03
2019-04-20T23:00:29.280Z,19.30
2019-04-20T23:02:47.132Z,15.53
2019-04-20T23:05:16.544Z,18.30
2019-04-20T23:07:46.647Z,15.77
2019-04-20T23:10:19.126Z,15.00
2019-04-20T23:12:51.384Z,18.67
2019-04-20T23:15:20.426Z,14.87
2019-04-20T23:17:52.076Z,12.93
2019-04-20T23:20:26.698Z,20.03
2019-04-20T23:22:53.052Z,16.63
2019-04-20T23:25:22.949Z,17.40
2019-04-20T23:28:02.844Z,13.87
2019-04-20T23:30:28.973Z,17.50
2019-04-20T23:32:56.015Z,16.80
2019-04-20T23:35:27.064Z,18.43
2019-04-20T23:38:04.333Z,17.50
2019-04-20T23:40:29.798Z,16.90
2019-04-20T23:43:23.401Z,16.67
2019-04-20T23:45:54.827Z,14.30
2019-04-20T23:48:33.716Z,19.67
2019-04-20T23:51:17.446Z,15.67
2019-04-20T23:53:43.775Z,16.23
2019-04-20T23:56:03.652Z,18.27
2019-04-20T23:58:40.616Z,19.02
